Allerte
Precipitazioni in corso 

Nessun fenomeno

Allerta Gelo (░C)  

Nessuna

Allerta Vento (km/h)  

Nessuna

Scarsa VisibilitÓ (m) 

Monte Termin
0

Allerta Caldo (░C)  

Nessuna

Allerta Afa (░C-UR)  

Nessuna

Dati e Grafici Climatici 3-7 gg
L'OMTeA propone un elaborazione dei più importanti parametri meteorologici rilevati dalle stazioni che hanno aderito al progetto di monitoraggio. In questa sezione è possibile consultare i dati provenienti dalle centraline, interpretati attraverso output testuale e grafico.
Se vuoi aderire alla rete OMTeA vai alla pagina Info e leggi requisiti e vantaggi.

Stazione di Cefal¨ - www.meteocefalu.altervista.org

Valori rilevati il 21/04/2018 alle ore 22:44

Temperatura atmosferica: 15.9 °C
Pressione atmosferica: 1016.1 mbar
Umidità relativa: 84 %
Intensità e direzione vento: 2.2 Km/h da S

Altitudine: 20 metri s.l.m.
Latitudine: 38.02° N
Longitudine: 14.01° E



Entra nella rete OMTeA!. Potrai liberamente usare sul tuo sito questi grafici; info alla pagina Istruzioni.

Ultime 50 rilevazioni
Orario Temp
°C
Rugiada
°C
Prec.
mm
Press.
mbar
Umidità
%
Int. vento
km/h
Dir.
vento
22:44 - 21/04 15.9 13.2 0 1016.10 84 2.2 S
22:29 - 21/04 15.9 13.2 0 1016.10 84 2.1 SSO
22:15 - 21/04 16.2 13.5 0 1016.10 84 3.1 SSO
21:59 - 21/04 16.3 13.8 0 1016.00 85 2.3 SSO
21:44 - 21/04 15.8 13.5 0 1016.00 86 1.2 SSE
21:29 - 21/04 15.6 13.4 0 1015.90 87 2.6 S
21:14 - 21/04 15.6 13.4 0 1015.80 87 0.6 ONO
20:59 - 21/04 15.8 13.6 0 1015.80 87 0.3 ESE
20:44 - 21/04 15.9 13.9 0 1015.70 88 0 --
20:29 - 21/04 16.4 14.4 0 1015.60 88 0 --
20:14 - 21/04 16.4 14.4 0 1015.30 88 0 --
19:59 - 21/04 16.6 14.4 0 1015.30 87 2.1 S
19:44 - 21/04 16.8 14.6 0 1015.10 87 2.2 ONO
19:29 - 21/04 16.9 14.7 0 1015.10 87 1.6 OSO
19:14 - 21/04 17.0 14.8 0 1015.10 87 4.0 S
18:59 - 21/04 17.1 14.7 0 1015.40 86 2.8 SO
18:44 - 21/04 17.1 14.7 0 1015.30 86 0.7 SO
18:29 - 21/04 17.1 14.7 0 1015.50 86 2.0 O
18:14 - 21/04 17.1 14.7 0 1015.50 86 1.6 SSO
17:59 - 21/04 17.0 14.6 0 1015.40 86 1.4 NE
17:44 - 21/04 17.3 14.9 0 1015.50 86 0.5 NE
17:29 - 21/04 17.5 15.1 0 1015.50 86 1.8 NE
17:14 - 21/04 17.4 15.0 0 1015.50 86 2.2 O
16:59 - 21/04 17.2 14.7 0 1015.70 85 1.0 NE
16:44 - 21/04 17.4 14.8 0 1015.90 85 3.3 ENE
16:29 - 21/04 17.4 14.7 0 1016.00 84 1.9 ENE
16:14 - 21/04 17.5 14.9 0 1016.10 85 0.2 NO
15:59 - 21/04 17.3 14.8 0 1016.10 85 0.5 O
15:44 - 21/04 17.2 14.7 0 1016.00 85 3.6 O
15:29 - 21/04 17.3 14.8 0 1016.10 85 0.3 ONO
15:14 - 21/04 17.2 14.7 0 1016.20 85 0.2 ENE
14:59 - 21/04 17.2 14.5 0 1016.30 84 1.0 NE
14:45 - 21/04 17.3 14.6 0 1016.10 84 1.2 N
14:29 - 21/04 17.6 14.7 0 1016.10 83 1.7 NE
14:14 - 21/04 17.6 14.7 0 1016.20 83 1.7 NE
13:59 - 21/04 17.7 14.8 0 1016.30 83 1.0 N
13:44 - 21/04 18.1 14.8 0 1016.20 81 4.1 ENE
13:29 - 21/04 18.4 15.3 0 1016.30 82 1.6 S
13:14 - 21/04 18.1 15.0 0 1016.20 82 4.6 ONO
12:59 - 21/04 18.1 14.8 0 1016.20 81 2.6 ONO
12:44 - 21/04 18.4 14.9 0 1016.40 80 3.9 OSO
12:29 - 21/04 18.5 15.0 0 1016.50 80 2.6 O
12:14 - 21/04 18.5 15.0 0 1016.70 80 1.2 SO
11:59 - 21/04 18.1 14.4 0 1016.60 79 0 --
11:44 - 21/04 18.3 14.6 0 1016.70 79 2.4 SSO
11:29 - 21/04 18.2 14.3 0 1016.90 78 2.6 NNO
11:14 - 21/04 18.1 14.2 0 1016.70 78 2.7 OSO
10:59 - 21/04 17.9 14.0 0 1016.70 78 3.3 ENE
10:44 - 21/04 17.6 13.7 0 1016.80 78 0.5 E
10:29 - 21/04 17.4 13.9 0 1016.50 80 1.9 NE


   In caso di mancato funzionamento di qualche risorsa, vi preghiamo di segnalarcelo alla pagina Contatti.
© 2018 Osservatorio Meteo OMTeA
Sito di informazione su Meteo, Tempo in atto e Clima in Italia